< Typhoon 196707 1967 Season Typhoon 196709 >
Typhoon 196708 (CLARA)
General InformationTrack Information on Google Maps || Disaster Info.ResourceGoogle EarthGE AnimationAtom FeedGeoJSON
Detalied Best Track (Time Zone = UTC)
Year Month Day Hour Lat. Long. Pressure (hPa) Wind (kt) Class Image Chart
1967 7 2 00 20.3 154.7 1008 0 2 -- Chart
1967 7 2 06 20.8 154.1 1006 0 2 -- Chart
1967 7 2 12 21.1 153.6 1006 0 2 -- Chart
1967 7 2 18 21.5 152.9 1006 0 2 -- Chart
1967 7 3 00 21.7 152.4 1006 0 2 -- Chart
1967 7 3 06 22.1 151.6 1006 0 2 -- Chart
1967 7 3 12 22.2 151.3 1006 0 2 -- Chart
1967 7 3 18 22.3 150.7 1006 0 2 -- Chart
1967 7 4 00 22.3 150.3 1006 0 2 -- Chart
1967 7 4 06 22.4 149.6 1006 0 2 -- Chart
1967 7 4 12 22.5 149.1 1006 0 2 -- Chart
1967 7 4 18 22.4 148.5 1006 0 2 -- Chart
1967 7 5 00 22.3 147.9 1006 0 2 -- Chart
1967 7 5 06 22.2 147.1 1004 0 2 -- Chart
1967 7 5 12 22.0 146.3 1004 0 2 -- Chart
1967 7 5 18 21.7 145.6 1004 0 2 -- Chart
1967 7 6 00 21.4 144.8 1000 0 9 -- Chart
1967 7 6 06 21.1 143.6 996 0 9 -- Chart
1967 7 6 12 20.9 142.5 992 0 9 -- Chart
1967 7 6 18 20.4 141.0 988 0 9 -- Chart
1967 7 7 00 19.7 139.6 984 0 9 -- Chart
1967 7 7 06 19.1 138.5 988 0 9 -- Chart
1967 7 7 12 19.1 137.1 988 0 9 -- Chart
1967 7 7 18 19.1 135.9 988 0 9 -- Chart
1967 7 8 00 19.1 134.8 990 0 9 -- Chart
1967 7 8 06 19.0 133.3 995 0 9 -- Chart
1967 7 8 12 19.5 132.1 990 0 9 -- Chart
1967 7 8 18 19.7 130.8 985 0 9 -- Chart
1967 7 9 00 20.3 130.0 980 0 9 -- Chart
1967 7 9 06 20.9 129.0 978 0 9 -- Chart
1967 7 9 12 21.5 127.7 978 0 9 -- Chart
1967 7 9 18 22.0 126.6 976 0 9 -- Chart
1967 7 10 00 22.4 125.9 974 0 9 -- Chart
1967 7 10 06 22.5 125.1 968 0 9 -- Chart
1967 7 10 12 22.7 124.3 968 0 9 -- Chart
1967 7 10 18 23.1 123.5 965 0 9 -- Chart
1967 7 11 00 23.7 122.7 960 0 9 -- Chart
1967 7 11 06 24.1 121.9 965 0 9 -- Chart
1967 7 11 12 24.5 121.0 984 0 9 -- Chart
1967 7 11 18 25.1 120.3 986 0 9 -- Chart
1967 7 12 00 25.8 119.7 994 0 2 -- Chart
Japan Meteorological Agency Best Track Data | Correction Date : 2013-03-19
< Typhoon 196707 1967 Season Typhoon 196709 >

Help